Time;durP1;ratioP1;P1;durP2;ratioP2;P2;SDS_P1;SDS_P2;PMS_P1;PMS_P2;Temp;Humidity;BMP_temperature;BMP_pressure;BME280_temperature;BME280_humidity;BME280_pressure;Samples;Min_cycle;Max_cycle;Signal;HPM_P1;HPM_P2
2023/08/23 00:01:32;;;;;;;10.60;6.57;;;;;;;15.96;100.00;101969.88;5091702;28;20047;-65
2023/08/23 00:03:57;;;;;;;9.95;4.68;;;;;;;15.92;100.00;101974.81;5091696;28;20084;-65
2023/08/23 00:06:23;;;;;;;11.90;4.70;;;;;;;15.91;100.00;101975.06;5091812;28;20028;-65
2023/08/23 00:08:48;;;;;;;7.53;5.40;;;;;;;15.85;100.00;101978.53;5091494;28;20062;-65
2023/08/23 00:11:14;;;;;;;6.85;4.22;;;;;;;15.83;100.00;101973.38;5091783;28;20063;-65
2023/08/23 00:13:39;;;;;;;10.40;5.30;;;;;;;15.82;100.00;101977.09;5091519;28;20028;-65
2023/08/23 00:16:05;;;;;;;12.10;5.03;;;;;;;15.78;100.00;101971.28;5091462;28;20081;-65
2023/08/23 00:18:30;;;;;;;8.77;6.15;;;;;;;15.78;100.00;101975.84;5091323;28;20024;-65
2023/08/23 00:20:56;;;;;;;11.73;6.00;;;;;;;15.73;100.00;101960.31;5091441;28;20471;-65
2023/08/23 00:23:21;;;;;;;11.13;5.18;;;;;;;15.72;100.00;101952.47;5091091;28;20051;-65
2023/08/23 00:25:46;;;;;;;8.20;4.55;;;;;;;15.70;100.00;101957.22;5091150;28;20028;-65
2023/08/23 00:28:12;;;;;;;11.07;5.40;;;;;;;15.70;100.00;101954.53;5090123;28;20040;-65
2023/08/23 00:30:37;;;;;;;9.88;5.45;;;;;;;15.68;100.00;101961.94;5089924;28;20040;-65
2023/08/23 00:33:02;;;;;;;7.35;4.63;;;;;;;15.67;100.00;101965.66;5091231;28;20070;-65
2023/08/23 00:35:28;;;;;;;9.88;5.25;;;;;;;15.59;100.00;101961.28;5089893;28;20048;-65
2023/08/23 00:37:53;;;;;;;9.05;4.97;;;;;;;15.54;100.00;101953.81;5089899;28;20065;-65
2023/08/23 00:40:19;;;;;;;10.88;5.22;;;;;;;15.43;100.00;101949.03;5091133;28;20030;-65
2023/08/23 00:42:44;;;;;;;7.90;4.53;;;;;;;15.40;100.00;101952.09;5071510;28;20433;-65
2023/08/23 00:45:09;;;;;;;7.03;4.47;;;;;;;15.42;100.00;101946.53;5071642;28;20067;-65
2023/08/23 00:47:35;;;;;;;8.00;4.80;;;;;;;15.37;100.00;101939.06;5071450;28;20112;-65
2023/08/23 00:50:01;;;;;;;9.30;5.22;;;;;;;15.39;100.00;101942.41;5089196;28;20138;-65
2023/08/23 00:52:27;;;;;;;9.73;5.25;;;;;;;15.41;100.00;101936.84;5090560;28;20067;-65
2023/08/23 00:54:53;;;;;;;9.70;5.68;;;;;;;15.40;100.00;101932.47;5090849;28;20028;-65
2023/08/23 00:57:21;;;;;;;10.63;4.88;;;;;;;15.39;100.00;101933.50;5090458;28;20048;-65
2023/08/23 00:59:47;;;;;;;10.52;5.43;;;;;;;15.42;100.00;101930.41;5090655;28;20036;-65
2023/08/23 01:02:12;;;;;;;11.68;6.20;;;;;;;15.45;100.00;101924.63;5090860;28;20032;-65
2023/08/23 01:04:38;;;;;;;8.75;5.13;;;;;;;15.44;100.00;101922.97;5090542;28;20073;-65
2023/08/23 01:07:12;;;;;;;11.93;5.38;;;;;;;15.40;100.00;101930.59;5090516;28;20028;-65
2023/08/23 01:09:37;;;;;;;9.68;5.50;;;;;;;15.34;100.00;101926.88;5090468;28;20028;-65
2023/08/23 01:12:17;;;;;;;10.27;4.53;;;;;;;15.39;100.00;101930.81;5090398;28;20116;-65
2023/08/23 01:15:01;;;;;;;20.02;6.18;;;;;;;15.40;100.00;101927.09;5081749;28;20262;-65
2023/08/23 01:17:27;;;;;;;10.18;5.30;;;;;;;15.37;100.00;101935.56;5090374;28;20085;-65
2023/08/23 01:19:55;;;;;;;13.35;5.22;;;;;;;15.25;100.00;101941.53;5090170;28;20028;-65
2023/08/23 01:22:22;;;;;;;8.68;5.25;;;;;;;15.20;100.00;101944.00;5090191;28;20036;-65
2023/08/23 01:24:49;;;;;;;9.43;5.60;;;;;;;15.17;100.00;101947.09;5090071;28;20043;-65
2023/08/23 01:27:17;;;;;;;11.65;5.75;;;;;;;15.15;100.00;101954.50;5089989;28;20065;-65
2023/08/23 01:29:45;;;;;;;8.07;4.80;;;;;;;15.12;100.00;101945.00;5089918;28;20036;-65
2023/08/23 01:32:35;;;;;;;9.15;5.38;;;;;;;15.15;100.00;101945.63;5089838;28;20056;-65
2023/08/23 01:35:09;;;;;;;7.50;4.57;;;;;;;14.98;100.00;101951.31;5090311;28;20119;-65
2023/08/23 01:37:42;;;;;;;7.28;4.18;;;;;;;14.88;100.00;101951.69;5070464;28;20035;-65
2023/08/23 01:40:10;;;;;;;12.20;5.13;;;;;;;14.85;100.00;101948.56;5089993;28;20035;-65
2023/08/23 01:42:37;;;;;;;7.70;4.68;;;;;;;14.83;100.00;101943.41;5089684;28;20032;-65
2023/08/23 01:45:04;;;;;;;8.80;4.43;;;;;;;14.84;100.00;101939.66;5089865;28;20039;-65
2023/08/23 01:47:29;;;;;;;9.32;5.25;;;;;;;14.83;100.00;101938.03;5070240;28;20032;-65
2023/08/23 01:49:55;;;;;;;9.65;5.38;;;;;;;14.82;100.00;101941.72;5070407;28;20093;-65
2023/08/23 01:52:20;;;;;;;9.70;4.35;;;;;;;14.84;100.00;101936.16;5070068;28;20027;-65
2023/08/23 01:54:45;;;;;;;6.60;4.50;;;;;;;14.82;100.00;101930.97;5070220;28;20029;-65
2023/08/23 01:57:11;;;;;;;6.57;4.78;;;;;;;14.76;100.00;101936.31;5069954;28;20071;-65
2023/08/23 01:59:37;;;;;;;10.35;5.03;;;;;;;14.80;100.00;101930.38;5070176;28;20044;-65
2023/08/23 02:02:03;;;;;;;8.52;4.72;;;;;;;14.79;100.00;101934.06;5088412;28;20032;-65
2023/08/23 02:04:28;;;;;;;10.70;5.97;;;;;;;14.79;100.00;101931.38;5088059;28;20075;-65
2023/08/23 02:06:53;;;;;;;6.75;4.38;;;;;;;14.80;100.00;101938.44;5089469;28;20084;-65
2023/08/23 02:09:19;;;;;;;7.90;4.28;;;;;;;14.78;100.00;101932.41;5089508;28;20050;-65
2023/08/23 02:11:44;;;;;;;10.45;5.25;;;;;;;14.68;100.00;101913.97;5089383;28;20095;-65
2023/08/23 02:14:09;;;;;;;8.25;4.22;;;;;;;14.73;100.00;101929.50;5089277;28;20016;-65
2023/08/23 02:16:35;;;;;;;5.78;4.18;;;;;;;14.67;100.00;101925.75;5089459;28;20089;-65
2023/08/23 02:19:00;;;;;;;9.80;4.85;;;;;;;14.69;100.00;101926.34;5089173;28;20489;-65
2023/08/23 02:21:25;;;;;;;9.68;4.55;;;;;;;14.61;100.00;101926.50;5089167;28;20060;-65
2023/08/23 02:23:51;;;;;;;8.15;4.82;;;;;;;14.61;100.00;101923.00;5089164;28;20031;-65
2023/08/23 02:26:16;;;;;;;6.63;4.30;;;;;;;14.61;100.00;101931.88;5089137;28;20459;-65
2023/08/23 02:28:42;;;;;;;9.10;5.00;;;;;;;14.59;100.00;101925.06;5089104;28;20089;-65
2023/08/23 02:31:07;;;;;;;6.55;4.32;;;;;;;14.59;100.00;101922.38;5089028;28;20034;-65
2023/08/23 02:33:33;;;;;;;9.45;5.43;;;;;;;14.53;100.00;101915.94;5089146;28;20032;-65
2023/08/23 02:35:58;;;;;;;10.48;5.00;;;;;;;14.54;100.00;101930.19;5087743;28;20445;-65
2023/08/23 02:38:24;;;;;;;11.20;5.35;;;;;;;14.50;100.00;101920.84;5089006;28;20062;-65
2023/08/23 02:40:49;;;;;;;8.45;5.20;;;;;;;14.42;100.00;101917.28;5088968;28;20483;-65
2023/08/23 02:43:14;;;;;;;9.95;5.35;;;;;;;14.44;100.00;101923.28;5088966;28;20063;-65
2023/08/23 02:45:40;;;;;;;8.32;4.50;;;;;;;14.46;100.00;101921.25;5088974;28;20032;-65
2023/08/23 02:48:09;;;;;;;6.70;4.35;;;;;;;14.50;100.00;101916.31;5069593;28;20036;-65
2023/08/23 02:50:35;;;;;;;5.97;4.32;;;;;;;14.48;100.00;101923.72;5088772;28;20852;-65
2023/08/23 02:53:01;;;;;;;6.28;4.50;;;;;;;14.52;100.00;101925.00;5088781;28;20024;-65
2023/08/23 02:55:26;;;;;;;6.82;4.55;;;;;;;14.46;100.00;101915.03;5088836;28;20036;-65
2023/08/23 02:57:51;;;;;;;7.68;4.53;;;;;;;14.42;100.00;101914.59;5088714;28;20123;-65
2023/08/23 03:00:17;;;;;;;9.38;4.55;;;;;;;14.46;100.00;101912.34;5088799;28;20447;-65
2023/08/23 03:02:42;;;;;;;8.48;4.97;;;;;;;14.44;100.00;101917.91;5088822;28;20123;-65
2023/08/23 03:05:08;;;;;;;7.50;4.50;;;;;;;14.44;100.00;101907.19;5088735;28;20036;-65
2023/08/23 03:07:34;;;;;;;10.68;5.20;;;;;;;14.46;100.00;101904.28;5088607;28;20994;-65
2023/08/23 03:09:59;;;;;;;13.13;5.13;;;;;;;14.43;100.00;101915.41;5088622;28;20047;-65
2023/08/23 03:12:24;;;;;;;6.35;4.28;;;;;;;14.38;100.00;101907.13;5090385;28;20032;-65
2023/08/23 03:14:50;;;;;;;8.07;4.78;;;;;;;14.36;100.00;101912.69;5092595;28;20020;-65
2023/08/23 03:17:15;;;;;;;6.45;4.15;;;;;;;14.23;100.00;101907.25;5091301;28;20135;-65
2023/08/23 03:19:40;;;;;;;7.97;4.47;;;;;;;14.14;100.00;101901.16;5092955;28;20031;-65
2023/08/23 03:22:06;;;;;;;8.73;6.07;;;;;;;14.10;100.00;101904.47;5092601;28;20035;-65
2023/08/23 03:24:32;;;;;;;9.40;4.20;;;;;;;14.07;100.00;101907.50;5092432;28;20028;-65
2023/08/23 03:26:57;;;;;;;9.38;4.72;;;;;;;14.05;100.00;101896.16;5092591;28;20447;-65
2023/08/23 03:29:22;;;;;;;8.00;4.50;;;;;;;14.05;100.00;101894.31;5090998;28;20082;-65
2023/08/23 03:31:48;;;;;;;10.43;4.72;;;;;;;14.07;100.00;101899.44;5092421;28;20028;-65
2023/08/23 03:34:13;;;;;;;8.93;4.85;;;;;;;14.05;100.00;101905.03;5092432;28;20047;-65
2023/08/23 03:36:38;;;;;;;11.88;4.40;;;;;;;14.05;100.00;101898.84;5092439;28;20045;-65
2023/08/23 03:39:04;;;;;;;7.05;4.05;;;;;;;14.03;100.00;101896.34;5092271;28;20028;-65
2023/08/23 03:41:29;;;;;;;6.05;4.03;;;;;;;14.04;100.00;101903.34;5092317;28;20031;-65
2023/08/23 03:43:54;;;;;;;8.85;5.28;;;;;;;14.06;100.00;101901.31;5090760;28;20471;-65
2023/08/23 03:46:23;;;;;;;9.25;4.75;;;;;;;14.08;100.00;101918.06;5092156;28;20032;-65
2023/08/23 03:48:49;;;;;;;6.68;4.53;;;;;;;14.07;100.00;101911.03;5092103;28;20429;-65
2023/08/23 03:51:14;;;;;;;9.38;4.53;;;;;;;14.05;100.00;101904.22;5091981;28;20020;-65
2023/08/23 03:53:39;;;;;;;7.15;4.20;;;;;;;14.03;100.00;101904.38;5092225;28;20074;-65
2023/08/23 03:56:06;;;;;;;8.35;5.22;;;;;;;14.05;100.00;101913.06;5091977;28;20024;-65
2023/08/23 03:58:31;;;;;;;8.63;4.85;;;;;;;14.06;100.00;101906.69;5091767;28;20056;-65
2023/08/23 04:00:57;;;;;;;7.43;4.57;;;;;;;14.07;100.00;101910.19;5091683;28;20055;-65
2023/08/23 04:03:22;;;;;;;7.00;4.03;;;;;;;14.06;100.00;101909.34;5091765;28;20032;-65
2023/08/23 04:05:48;;;;;;;6.75;4.57;;;;;;;14.03;100.00;101921.31;5091852;28;20511;-65
2023/08/23 04:08:13;;;;;;;6.75;4.43;;;;;;;14.02;100.00;101914.28;5091678;28;20020;-65
2023/08/23 04:10:38;;;;;;;8.10;4.72;;;;;;;14.04;100.00;101908.72;5091768;28;20827;-65
2023/08/23 04:13:04;;;;;;;9.52;5.03;;;;;;;14.03;100.00;101907.91;5091583;28;20024;-65
2023/08/23 04:15:29;;;;;;;10.00;4.10;;;;;;;14.06;100.00;101898.63;5090375;28;20618;-65
2023/08/23 04:17:55;;;;;;;8.00;4.25;;;;;;;14.07;100.00;101915.56;5091605;28;20119;-65
2023/08/23 04:20:20;;;;;;;11.65;5.68;;;;;;;14.08;100.00;101919.91;5091460;28;20967;-65
2023/08/23 04:22:45;;;;;;;7.07;4.85;;;;;;;14.10;100.00;101905.28;5091843;28;20078;-65
2023/08/23 04:25:11;;;;;;;8.38;4.55;;;;;;;14.12;100.00;101915.81;5090703;28;20479;-65
2023/08/23 04:27:36;;;;;;;8.23;4.75;;;;;;;14.12;100.00;101915.81;5091309;28;20440;-65
2023/08/23 04:30:06;;;;;;;8.32;4.40;;;;;;;14.10;100.00;101913.31;5091349;28;20035;-65
2023/08/23 04:32:31;;;;;;;8.38;5.00;;;;;;;14.09;100.00;101914.34;5091349;28;20036;-65
2023/08/23 04:34:57;;;;;;;6.90;4.20;;;;;;;14.07;100.00;101918.22;5090946;28;20039;-65
2023/08/23 04:37:22;;;;;;;8.73;4.57;;;;;;;14.09;100.00;101916.19;5090170;28;20414;-65
2023/08/23 04:39:47;;;;;;;8.98;4.93;;;;;;;14.06;100.00;101912.03;5089926;28;21041;-65
2023/08/23 04:42:13;;;;;;;7.78;4.55;;;;;;;14.10;100.00;101907.13;5090001;28;20467;-65
2023/08/23 04:44:38;;;;;;;5.20;4.30;;;;;;;14.01;100.00;101920.66;5090194;28;20035;-65
2023/08/23 04:47:04;;;;;;;7.90;4.75;;;;;;;13.94;100.00;101911.75;5090741;28;20471;-65
2023/08/23 04:49:29;;;;;;;8.60;3.92;;;;;;;13.93;100.00;101914.63;5090833;28;20453;-65
2023/08/23 04:51:54;;;;;;;8.63;5.45;;;;;;;13.86;100.00;101908.34;5090496;28;20047;-65
2023/08/23 04:54:20;;;;;;;9.60;4.63;;;;;;;13.85;100.00;101915.56;5090025;28;20047;-65
2023/08/23 04:56:46;;;;;;;11.60;5.15;;;;;;;13.85;100.00;101910.22;5070053;28;20059;-65
2023/08/23 04:59:11;;;;;;;8.07;3.92;;;;;;;13.86;100.00;101908.34;5069673;28;20067;-65
2023/08/23 05:01:36;;;;;;;8.35;4.25;;;;;;;13.91;100.00;101905.91;5071087;28;20037;-65
2023/08/23 05:04:02;;;;;;;6.32;4.03;;;;;;;13.92;100.00;101911.09;5071148;28;20028;-65
2023/08/23 05:06:27;;;;;;;7.05;4.68;;;;;;;13.95;100.00;101913.41;5070910;28;20029;-65
2023/08/23 05:08:52;;;;;;;9.75;5.75;;;;;;;14.01;100.00;101912.63;5071070;28;20052;-65
2023/08/23 05:11:18;;;;;;;8.68;4.80;;;;;;;14.05;100.00;101914.94;5090018;28;20043;-65
2023/08/23 05:13:43;;;;;;;6.97;4.28;;;;;;;14.10;100.00;101915.19;5090082;28;20020;-65
2023/08/23 05:16:08;;;;;;;11.15;5.78;;;;;;;14.14;100.00;101905.72;5090006;28;20483;-65
2023/08/23 05:18:34;;;;;;;8.48;4.10;;;;;;;14.16;100.00;101904.50;5074364;28;20419;-65
2023/08/23 05:20:59;;;;;;;6.50;4.07;;;;;;;14.19;100.00;101906.78;5070743;28;20031;-65
2023/08/23 05:23:25;;;;;;;6.30;4.38;;;;;;;14.25;100.00;101907.84;5070658;28;20020;-65
2023/08/23 05:25:53;;;;;;;6.97;4.95;;;;;;;14.24;100.00;101896.28;5070519;28;20028;-65
2023/08/23 05:28:19;;;;;;;12.25;5.07;;;;;;;14.35;100.00;101907.53;5090055;28;20023;-65
2023/08/23 05:30:45;;;;;;;6.25;4.10;;;;;;;14.41;100.00;101907.56;5090015;28;20058;-65
2023/08/23 05:33:12;;;;;;;8.57;4.60;;;;;;;14.48;100.00;101899.56;5089969;28;20028;-65
2023/08/23 05:35:37;;;;;;;11.68;5.47;;;;;;;14.57;100.00;101908.34;5088916;28;20024;-65
2023/08/23 05:38:03;;;;;;;9.30;5.32;;;;;;;14.60;100.00;101906.06;5089942;28;20038;-65
2023/08/23 05:40:29;;;;;;;8.38;4.85;;;;;;;14.66;100.00;101905.28;5089811;28;20044;-65
2023/08/23 05:42:54;;;;;;;8.13;5.03;;;;;;;14.72;100.00;101908.19;5089709;28;20059;-65
2023/08/23 05:45:20;;;;;;;13.98;6.50;;;;;;;14.76;100.00;101904.91;5089736;28;20062;-65
2023/08/23 05:47:46;;;;;;;13.38;5.85;;;;;;;14.77;100.00;101909.25;5089798;28;20036;-65
2023/08/23 05:50:11;;;;;;;8.70;5.57;;;;;;;14.83;100.00;101908.47;5070408;28;20059;-65
2023/08/23 05:52:36;;;;;;;8.10;5.15;;;;;;;14.87;100.00;101906.22;5070100;28;20222;-65
2023/08/23 05:55:02;;;;;;;9.75;4.70;;;;;;;14.93;100.00;101909.97;5070209;28;20028;-65
2023/08/23 05:57:27;;;;;;;11.80;6.07;;;;;;;14.98;100.00;101912.88;5069922;28;20071;-65
2023/08/23 05:59:53;;;;;;;11.85;6.55;;;;;;;15.02;100.00;101920.34;5070142;28;20514;-65
2023/08/23 06:02:18;;;;;;;13.30;6.80;;;;;;;15.12;100.00;101917.28;5069958;28;20502;-65
2023/08/23 06:04:45;;;;;;;11.77;6.63;;;;;;;15.22;100.00;101925.81;5069946;28;20499;-65
2023/08/23 06:07:10;;;;;;;15.80;6.88;;;;;;;15.28;100.00;101919.63;5089383;28;20056;-65
2023/08/23 06:09:35;;;;;;;18.08;7.28;;;;;;;15.37;100.00;101927.50;5089249;28;20059;-65
2023/08/23 06:12:01;;;;;;;11.00;6.28;;;;;;;15.44;100.00;101931.03;5089397;28;20114;-65
2023/08/23 06:14:26;;;;;;;18.08;10.73;;;;;;;15.52;100.00;101936.25;5089144;28;20407;-65
2023/08/23 06:16:52;;;;;;;13.63;9.60;;;;;;;15.58;100.00;101935.41;5089317;28;20024;-65
2023/08/23 06:19:17;;;;;;;18.48;10.77;;;;;;;15.62;100.00;101931.31;5089109;28;20039;-65
2023/08/23 06:21:43;;;;;;;18.00;11.00;;;;;;;15.69;100.00;101929.50;5089201;28;20978;-65
2023/08/23 06:24:09;;;;;;;18.77;10.30;;;;;;;15.75;100.00;101925.16;5088832;28;20028;-65
2023/08/23 06:26:35;;;;;;;16.33;10.25;;;;;;;15.82;100.00;101925.16;5089617;28;20043;-65
2023/08/23 06:29:00;;;;;;;22.05;11.07;;;;;;;15.88;100.00;101924.34;5090737;28;20024;-65
2023/08/23 06:31:26;;;;;;;16.45;10.07;;;;;;;15.96;100.00;101926.84;5088696;28;20058;-65
2023/08/23 06:33:51;;;;;;;19.05;9.43;;;;;;;16.02;100.00;101933.25;5088994;28;20090;-65
2023/08/23 06:36:16;;;;;;;15.15;9.35;;;;;;;16.10;100.00;101931.16;5089037;28;20024;-65
2023/08/23 06:38:42;;;;;;;16.25;9.35;;;;;;;16.17;100.00;101929.31;5088917;28;20027;-65
2023/08/23 06:41:07;;;;;;;19.52;9.48;;;;;;;16.26;100.00;101937.19;5088815;28;20471;-65
2023/08/23 06:43:32;;;;;;;19.85;11.02;;;;;;;16.34;100.00;101940.47;5088831;28;20516;-65
2023/08/23 06:45:58;;;;;;;17.05;9.55;;;;;;;16.41;100.00;101933.22;5082535;28;20097;-65
2023/08/23 06:48:23;;;;;;;17.10;10.65;;;;;;;16.50;100.00;101928.44;5094414;28;20042;-65
2023/08/23 06:50:48;;;;;;;18.42;9.82;;;;;;;16.56;100.00;101933.00;5094730;28;20134;-65
2023/08/23 06:53:14;;;;;;;14.93;8.63;;;;;;;16.64;100.00;101930.09;5095121;28;20055;-65
2023/08/23 06:55:40;;;;;;;21.50;11.00;;;;;;;16.73;100.00;101936.06;5095257;28;20112;-65
2023/08/23 06:58:07;;;;;;;17.13;9.80;;;;;;;16.80;100.00;101939.63;5095188;28;20403;-65
2023/08/23 07:00:33;;;;;;;16.23;9.60;;;;;;;16.87;100.00;101928.81;5075630;28;20039;-66
2023/08/23 07:02:58;;;;;;;17.77;9.95;;;;;;;16.98;100.00;101930.03;5094726;28;20020;-65
2023/08/23 07:05:24;;;;;;;16.70;10.35;;;;;;;17.06;100.00;101946.78;5095036;28;20161;-65
2023/08/23 07:07:49;;;;;;;19.67;10.50;;;;;;;17.14;100.00;101950.31;5095298;28;20463;-65
2023/08/23 07:10:14;;;;;;;17.52;9.45;;;;;;;17.21;100.00;101953.78;5095008;28;20032;-66
2023/08/23 07:12:40;;;;;;;17.42;10.73;;;;;;;17.28;100.00;101950.00;5095088;28;20386;-66
2023/08/23 07:15:06;;;;;;;16.25;9.48;;;;;;;17.33;100.00;101949.38;5094910;28;20027;-65
2023/08/23 07:17:33;;;;;;;19.55;10.60;;;;;;;17.41;100.00;101946.44;5094829;28;20039;-66
2023/08/23 07:19:58;;;;;;;16.45;10.75;;;;;;;17.51;100.00;101956.75;5095019;28;20064;-65
2023/08/23 07:22:24;;;;;;;16.48;10.65;;;;;;;17.56;100.00;101948.84;5094762;28;20051;-66
2023/08/23 07:24:49;;;;;;;15.52;10.73;;;;;;;17.65;100.00;101955.63;5094918;28;20028;-66
2023/08/23 07:27:15;;;;;;;22.42;11.73;;;;;;;17.75;100.00;101960.56;5094963;28;20438;-68
2023/08/23 07:29:40;;;;;;;18.83;10.90;;;;;;;17.86;100.00;101957.19;5094630;28;20066;-67
2023/08/23 07:32:06;;;;;;;19.58;11.43;;;;;;;17.93;100.00;101963.38;5089528;28;20037;-66
2023/08/23 07:34:31;;;;;;;15.15;10.10;;;;;;;18.05;100.00;101962.66;5075481;28;20070;-65
2023/08/23 07:36:56;;;;;;;17.02;10.65;;;;;;;18.16;100.00;101961.97;5074106;28;20028;-65
2023/08/23 07:39:24;;;;;;;19.63;12.30;;;;;;;18.27;100.00;101971.22;5078087;28;20040;-65
2023/08/23 07:41:49;;;;;;;15.13;10.57;;;;;;;18.34;100.00;101969.31;5075845;28;20034;-65
2023/08/23 07:44:15;;;;;;;18.50;10.98;;;;;;;18.42;100.00;101979.84;5073431;28;20028;-66
2023/08/23 07:46:40;;;;;;;18.73;9.95;;;;;;;18.52;100.00;101977.47;5072907;28;20160;-68
2023/08/23 07:49:06;;;;;;;14.52;9.55;;;;;;;18.60;100.00;101984.44;5073546;28;20586;-69
2023/08/23 07:51:31;;;;;;;17.05;10.00;;;;;;;18.66;100.00;101978.16;5072390;28;20051;-68
2023/08/23 07:53:56;;;;;;;20.88;9.18;;;;;;;18.72;100.00;101982.66;5072022;28;20399;-68
2023/08/23 07:56:22;;;;;;;14.77;9.63;;;;;;;18.83;100.00;101981.94;5073230;28;20025;-68
2023/08/23 07:58:47;;;;;;;14.48;9.55;;;;;;;18.97;100.00;101971.00;5070043;28;20125;-68
2023/08/23 08:01:12;;;;;;;11.95;7.85;;;;;;;19.10;100.00;101978.13;5070475;28;20077;-68
2023/08/23 08:03:39;;;;;;;13.48;9.13;;;;;;;19.17;100.00;101982.41;5069787;28;20167;-68
2023/08/23 08:06:04;;;;;;;12.20;8.05;;;;;;;19.32;100.00;101983.91;5089860;28;20028;-67
2023/08/23 08:08:30;;;;;;;13.07;8.32;;;;;;;19.65;100.00;101984.31;5087865;28;20104;-67
2023/08/23 08:10:55;;;;;;;11.80;7.20;;;;;;;20.61;100.00;101983.47;5089342;28;20424;-67
2023/08/23 08:13:21;;;;;;;11.95;7.07;;;;;;;21.70;94.50;101980.88;5089467;28;20028;-67
2023/08/23 08:15:46;;;;;;;8.65;6.43;;;;;;;23.50;86.87;101982.47;5089524;28;20502;-66
2023/08/23 08:18:11;;;;;;;13.65;7.40;;;;;;;25.17;77.40;101985.94;5089428;28;20467;-67
2023/08/23 08:20:37;;;;;;;12.35;6.63;;;;;;;26.70;70.61;101987.19;5089176;28;20032;-66
2023/08/23 08:23:02;;;;;;;10.13;6.40;;;;;;;27.68;65.00;101982.94;5089072;28;20038;-67
2023/08/23 08:25:28;;;;;;;10.75;5.40;;;;;;;28.52;59.19;101986.38;5088814;28;20039;-67
2023/08/23 08:27:53;;;;;;;11.65;5.90;;;;;;;29.33;57.61;101986.53;5089254;28;20035;-68
2023/08/23 08:30:19;;;;;;;9.82;5.55;;;;;;;30.18;55.01;101986.59;5089175;28;20040;-68
2023/08/23 08:32:44;;;;;;;6.78;5.07;;;;;;;30.30;54.48;101974.03;5076451;28;20045;-68
2023/08/23 08:35:10;;;;;;;12.88;5.68;;;;;;;30.68;51.81;101979.38;5069717;28;20032;-69
2023/08/23 08:37:36;;;;;;;7.45;5.18;;;;;;;31.08;50.90;101984.38;5069207;28;20086;-67
2023/08/23 08:40:01;;;;;;;7.10;5.18;;;;;;;31.37;49.13;101987.63;5088896;28;20020;-70
2023/08/23 08:42:29;;;;;;;10.65;6.30;;;;;;;31.29;48.96;101990.28;5069340;28;20032;-69
2023/08/23 08:44:54;;;;;;;6.90;4.35;;;;;;;31.13;48.33;101982.34;5089017;28;20107;-70
2023/08/23 08:47:21;;;;;;;11.30;5.85;;;;;;;30.26;50.88;101972.19;5087414;28;20177;-66
2023/08/23 08:49:47;;;;;;;10.60;6.70;;;;;;;28.51;54.25;101970.22;5088132;28;20157;-75
2023/08/23 08:52:13;;;;;;;8.70;4.78;;;;;;;27.26;58.97;101971.41;5088837;28;20075;-68
2023/08/23 08:54:41;;;;;;;8.68;4.75;;;;;;;26.33;62.49;101960.97;5088622;28;20032;-68
2023/08/23 08:57:09;;;;;;;8.32;5.15;;;;;;;25.52;65.00;101973.50;5088732;28;20028;-68
2023/08/23 08:59:35;;;;;;;7.93;5.50;;;;;;;24.89;68.80;101968.91;5088686;28;20055;-68
2023/08/23 09:02:03;;;;;;;8.00;5.60;;;;;;;24.41;69.04;101978.94;5084067;28;20096;-68
2023/08/23 09:04:29;;;;;;;13.32;5.93;;;;;;;24.03;69.60;101972.66;5088213;28;20437;-67
2023/08/23 09:06:55;;;;;;;9.32;5.95;;;;;;;23.77;72.96;101968.88;5088444;28;20114;-67
2023/08/23 09:09:20;;;;;;;10.73;7.00;;;;;;;23.50;74.08;101968.03;5088029;28;20058;-68
2023/08/23 09:11:46;;;;;;;7.63;4.88;;;;;;;23.36;76.31;101962.97;5088412;28;20063;-68
2023/08/23 09:14:16;;;;;;;7.47;5.35;;;;;;;23.29;76.10;101962.38;5087864;28;20077;-68
2023/08/23 09:16:43;;;;;;;8.48;5.85;;;;;;;23.22;76.93;101960.91;5079127;28;20089;-67
2023/08/23 09:19:11;;;;;;;8.85;5.60;;;;;;;23.18;74.96;101963.31;5088033;28;20034;-67
2023/08/23 09:21:42;;;;;;;10.73;5.70;;;;;;;23.17;75.53;101964.41;5088037;28;20039;-69
2023/08/23 09:24:07;;;;;;;11.02;5.55;;;;;;;23.17;76.94;101967.13;5088000;28;20035;-67
2023/08/23 09:26:33;;;;;;;7.90;4.93;;;;;;;23.21;75.99;101965.53;5070157;28;20041;-67
2023/08/23 09:28:58;;;;;;;9.50;4.95;;;;;;;23.23;78.85;101962.56;5068055;28;20035;-71
2023/08/23 09:31:23;;;;;;;14.52;5.97;;;;;;;23.14;77.26;101957.56;5068034;28;20136;-69
2023/08/23 09:33:49;;;;;;;8.48;5.28;;;;;;;23.12;77.90;101959.72;5068257;28;20119;-70
2023/08/23 09:36:31;;;;;;;10.75;6.40;;;;;;;23.10;78.59;101961.84;5067055;28;20028;-66
2023/08/23 09:38:59;;;;;;;16.17;7.80;;;;;;;23.03;80.21;101963.97;5087235;28;20031;-67
2023/08/23 09:41:24;;;;;;;12.70;7.05;;;;;;;23.07;80.24;101970.53;5087212;28;20495;-69
2023/08/23 09:43:53;;;;;;;9.30;6.00;;;;;;;23.10;80.78;101972.75;5079624;28;20117;-70
2023/08/23 09:46:25;;;;;;;11.35;5.88;;;;;;;23.14;81.43;101971.16;5072398;28;20540;-69
2023/08/23 09:48:52;;;;;;;10.95;6.45;;;;;;;23.08;81.75;101980.34;5072290;28;20379;-68
2023/08/23 09:51:18;;;;;;;15.45;8.02;;;;;;;23.08;81.45;101958.59;5073544;28;20020;-69
2023/08/23 09:53:50;;;;;;;15.90;7.30;;;;;;;23.06;79.96;101952.56;5072585;28;20106;-67
2023/08/23 09:56:15;;;;;;;12.15;6.15;;;;;;;23.11;81.77;101958.06;5073273;28;20024;-72
2023/08/23 09:58:41;;;;;;;10.35;5.65;;;;;;;23.23;80.70;101949.75;5072795;28;20063;-67
2023/08/23 10:01:07;;;;;;;11.80;6.38;;;;;;;23.35;83.04;101955.09;5070717;28;20422;-67
2023/08/23 10:03:33;;;;;;;15.55;7.13;;;;;;;23.40;78.30;101957.84;5071824;28;20059;-67
2023/08/23 10:05:59;;;;;;;10.75;5.43;;;;;;;23.55;82.67;101960.75;5072940;28;20055;-67
2023/08/23 10:08:24;;;;;;;13.07;6.47;;;;;;;23.57;81.40;101955.84;5073192;28;20035;-68
2023/08/23 10:10:50;;;;;;;11.85;6.05;;;;;;;23.58;78.93;101960.22;5073003;28;20100;-67
2023/08/23 10:13:18;;;;;;;11.27;5.68;;;;;;;23.62;80.76;101964.06;5071351;28;20032;-67
2023/08/23 10:15:44;;;;;;;13.48;5.03;;;;;;;23.72;81.06;101959.84;5070082;28;20097;-67
2023/08/23 10:18:12;;;;;;;8.55;4.88;;;;;;;23.81;77.57;101975.44;5073852;28;20034;-68
2023/08/23 10:20:38;;;;;;;11.20;4.40;;;;;;;23.88;80.12;101977.16;5074038;28;20020;-67
2023/08/23 10:23:16;;;;;;;9.82;5.20;;;;;;;23.92;79.23;101968.22;5069954;28;20490;-68
2023/08/23 10:25:43;;;;;;;8.90;4.18;;;;;;;23.94;78.00;101962.47;5071611;28;20024;-68
2023/08/23 10:28:18;;;;;;;9.73;4.07;;;;;;;23.92;77.41;101962.75;5072300;28;20027;-69
2023/08/23 10:30:45;;;;;;;9.70;4.80;;;;;;;24.01;79.20;101953.00;5074354;28;20043;-70
2023/08/23 10:33:13;;;;;;;7.95;3.97;;;;;;;24.10;79.65;101956.06;5072678;28;20035;-70
2023/08/23 10:35:40;;;;;;;6.68;4.28;;;;;;;24.09;76.29;101959.06;5070491;28;20036;-70
2023/08/23 10:38:07;;;;;;;7.95;4.25;;;;;;;24.09;74.28;101959.88;5072541;28;20093;-70
2023/08/23 10:40:32;;;;;;;10.60;3.47;;;;;;;24.17;76.84;101959.41;5070614;28;20150;-70
2023/08/23 10:43:01;;;;;;;5.68;2.63;;;;;;;24.33;72.68;101959.53;5072011;28;20497;-70
2023/08/23 10:45:27;;;;;;;10.35;3.67;;;;;;;24.43;75.37;101949.50;5071687;28;20097;-69
2023/08/23 10:47:53;;;;;;;7.95;2.80;;;;;;;24.55;75.14;101953.94;5070067;28;20493;-70
2023/08/23 10:50:19;;;;;;;6.55;2.88;;;;;;;24.56;71.95;101953.69;5071250;28;20028;-70
2023/08/23 10:52:48;;;;;;;4.00;2.35;;;;;;;24.67;72.24;101944.47;5072625;28;20918;-70
2023/08/23 10:55:13;;;;;;;7.55;2.70;;;;;;;24.61;66.57;101944.75;5071551;28;20495;-70
2023/08/23 10:57:39;;;;;;;5.20;2.72;;;;;;;24.66;72.45;101942.03;5072973;28;20029;-70
2023/08/23 11:00:05;;;;;;;4.32;3.03;;;;;;;24.67;68.25;101949.13;5070275;28;20270;-70
2023/08/23 11:02:33;;;;;;;3.80;2.22;;;;;;;24.66;67.89;101947.50;5071941;28;20032;-70
2023/08/23 11:04:59;;;;;;;2.92;1.73;;;;;;;24.71;65.22;101947.53;5070932;28;20025;-70
2023/08/23 11:07:27;;;;;;;3.80;2.08;;;;;;;24.62;63.93;101940.91;5071299;28;20463;-70
2023/08/23 11:09:54;;;;;;;5.60;2.15;;;;;;;24.56;64.06;101939.25;5071516;28;20044;-70